17:24
Airports
History
Links
Donate
Help keep this website running!
PayPal
Bitcoin
This page is community maintained. The information is intended for PC simulator navigation or reference.
Always use approved charts for navigation.
LIEO
OLBIA COSTA SMERALDA
OLBIA COSTA SMERALDA (LIEO)
Olbia, Sardegna, Italy (7026)
(C)
Lat/Lng:40° 53' 55.18" N / 9° 31' 3.46" E
40.898661 / 9.517629
Elevation:37'ft / 11mMSL
ID / ICAO:LIEO
Runways:1
Longest:06-24
Asphalt 2,446m / 8,026ft
Controlled:Yes
METAR16:20 GMT 2017-11-20
Altimeter: 30.09
Visibility: 6.2 statute miles
Wind: 12 knots (from 240°)
Temp: 15°c / 59°f
Humidity: 58.7%

METAR: LIEO 201620Z 24012KT 9999 SCT050 15/07 Q1019

(Powered by phpweather)
Airport Radio Frequencies
ATIS: 113.9
Tower: 122.1, 125.95
Approach: 118.97
Nearby VORs <50NM
Nearby NDBs
Runway 06 / 24
Dimensions:2446.2 x 45.1m 8026' x 148'ft
Surface:Asphalt
Edge Lights:High intensity
Runway 06 [A]Runway 24 [B]
Heading:055°TH 235°TH
Lat:
Lng:
40° 53' 32.68"N
9° 30' 20.47"E
40° 54' 17.68"N
9° 31' 46.46"E
ALS:SALS
TDZ:Yes, lighted
User Notes and Comments
40° 53' 55.18" N / 9° 31' 3.46" E
Distance To
Airport ID:
Nearby Airports
(C) Cavallo 35.0 NM
2051 NNW 337°
(C) Figari Sud Corse 47.1 NM
LFKF ( WX ) NNW 332°
(C) Propriano 61.9 NM
LFKO NNW 328°
(C) ALGHERO 66.8 NM
LIEA ( WX ) WSW 253°
(C) TORTOLI 68.3 NM
LIET S 172°
(C) Solenzara 71.1 NM
LFKS ( WX ) N 355°
(C) Napoleon Bonaparte 79.9 NM
LFKJ ( WX ) NNW 332°
VFR Chart
Flight Planning at SkyVector.com